Time;durP1;ratioP1;P1;durP2;ratioP2;P2;SDS_P1;SDS_P2;PMS_P1;PMS_P2;Temp;Humidity;BMP_temperature;BMP_pressure;BME280_temperature;BME280_humidity;BME280_pressure;Samples;Min_cycle;Max_cycle;Signal;HPM_P1;HPM_P2
2022/07/12 00:02:21;;;;;;;0.80;0.80;;;;;;;18.25;59.91;99587.81;5093405;28;39901;-76
2022/07/12 00:04:50;;;;;;;1.00;1.00;;;;;;;18.27;60.20;99588.56;5092934;28;41073;-77
2022/07/12 00:07:18;;;;;;;0.60;0.60;;;;;;;18.30;60.07;99600.84;5110082;28;41520;-77
2022/07/12 00:09:45;;;;;;;1.47;0.90;;;;;;;18.03;60.40;99555.72;5094034;28;42539;-78
2022/07/12 00:12:13;;;;;;;0.87;0.87;;;;;;;18.29;59.96;99600.00;5094003;28;40893;-80
2022/07/12 00:14:41;;;;;;;1.40;0.70;;;;;;;18.29;60.08;99600.00;5093090;28;42122;-78
2022/07/12 00:17:10;;;;;;;0.80;0.80;;;;;;;18.29;59.90;99602.69;5092954;28;42858;-80
2022/07/12 00:19:38;;;;;;;1.00;0.90;;;;;;;18.22;60.10;99580.03;5092878;28;42299;-78
2022/07/12 00:22:07;;;;;;;0.93;0.83;;;;;;;18.30;60.12;99596.31;5092880;28;39816;-83
2022/07/12 00:24:35;;;;;;;0.93;0.93;;;;;;;18.31;60.48;99591.81;5075997;28;41110;-81
2022/07/12 00:27:02;;;;;;;0.70;0.70;;;;;;;18.30;60.21;99599.00;5092810;28;41726;-81
2022/07/12 00:29:30;;;;;;;1.83;0.67;;;;;;;18.29;60.46;99600.00;5093826;28;43204;-79
2022/07/12 00:31:58;;;;;;;0.70;0.70;;;;;;;18.30;60.26;99593.63;5093951;28;40947;-78
2022/07/12 00:34:26;;;;;;;0.70;0.70;;;;;;;18.31;60.62;99598.03;5094086;28;42934;-79
2022/07/12 00:36:54;;;;;;;0.80;0.80;;;;;;;18.31;60.99;99592.66;5075646;28;43515;-78
2022/07/12 00:39:23;;;;;;;1.03;0.93;;;;;;;18.21;60.94;99578.31;5075698;28;41670;-79
2022/07/12 00:41:51;;;;;;;0.80;0.80;;;;;;;18.19;60.58;99566.00;5092632;28;41548;-75
2022/07/12 00:44:19;;;;;;;0.70;0.70;;;;;;;18.30;60.35;99585.59;5092676;28;42527;-82
2022/07/12 00:46:47;;;;;;;0.70;0.70;;;;;;;18.15;60.15;99561.91;5093716;28;42788;-77
2022/07/12 00:49:16;;;;;;;0.93;0.83;;;;;;;18.30;60.46;99584.75;5093744;28;42320;-77
2022/07/12 00:51:45;;;;;;;0.70;0.70;;;;;;;18.21;60.14;99578.31;5075133;28;41297;-84
2022/07/12 00:54:13;;;;;;;0.63;0.60;;;;;;;18.25;60.53;99592.34;5075772;28;41813;-80
2022/07/12 00:56:42;;;;;;;0.70;0.70;;;;;;;18.19;60.74;99587.47;5091792;28;43167;-78
2022/07/12 00:59:10;;;;;;;1.27;0.93;;;;;;;18.16;60.69;99591.28;5093523;28;43263;-80
2022/07/12 01:01:39;;;;;;;1.00;0.90;;;;;;;18.08;60.56;99582.13;5109276;28;40438;-81
2022/07/12 01:04:07;;;;;;;1.20;1.10;;;;;;;17.98;60.63;99579.34;5126604;27;41477;-79
2022/07/12 01:06:34;;;;;;;0.90;0.80;;;;;;;17.77;60.88;99557.84;5108880;28;41909;-82
2022/07/12 01:09:03;;;;;;;1.30;1.00;;;;;;;17.68;61.14;99560.41;5091914;28;41125;-83
2022/07/12 01:11:31;;;;;;;1.00;0.73;;;;;;;17.66;61.27;99575.75;5074895;28;39827;-81
2022/07/12 01:14:01;;;;;;;0.83;0.63;;;;;;;17.48;61.56;99570.84;5126425;27;41552;-83
2022/07/12 01:16:30;;;;;;;1.10;0.93;;;;;;;17.45;61.56;99579.13;5093328;28;43519;-80
2022/07/12 01:18:59;;;;;;;1.00;0.90;;;;;;;17.33;61.64;99577.41;5091836;28;41168;-79
2022/07/12 01:21:32;;;;;;;1.03;0.80;;;;;;;17.21;61.79;99573.03;5092825;28;40189;-79
2022/07/12 01:24:02;;;;;;;0.80;0.80;;;;;;;17.08;61.92;99559.75;5074975;28;40724;-83
2022/07/12 01:26:30;;;;;;;1.97;1.00;;;;;;;17.08;61.94;99572.28;5074612;28;42111;-81
2022/07/12 01:28:59;;;;;;;1.23;0.90;;;;;;;17.02;62.25;99584.31;5092283;28;43213;-82
2022/07/12 01:31:27;;;;;;;0.87;0.87;;;;;;;16.92;62.23;99577.13;5108762;28;40395;-81
2022/07/12 01:33:55;;;;;;;0.80;0.80;;;;;;;16.91;62.38;99583.44;5091709;28;42733;-78
2022/07/12 01:36:23;;;;;;;0.93;0.70;;;;;;;16.75;62.18;99571.25;5125816;27;42889;-75
2022/07/12 01:38:50;;;;;;;0.50;0.50;;;;;;;16.78;62.41;99586.22;5091763;28;42138;-79
2022/07/12 01:41:20;;;;;;;0.60;0.60;;;;;;;16.73;62.59;99583.03;5091319;28;39002;-81
2022/07/12 01:43:48;;;;;;;0.70;0.70;;;;;;;16.67;62.55;99589.72;5074844;28;40974;-80
2022/07/12 01:46:16;;;;;;;0.90;0.90;;;;;;;16.60;62.42;99585.75;5108328;28;42827;-81
2022/07/12 01:48:43;;;;;;;0.80;0.80;;;;;;;16.56;62.55;99584.28;5074702;28;42243;-83
2022/07/12 01:51:11;;;;;;;0.80;0.80;;;;;;;16.49;62.83;99583.03;5092584;28;39893;-77
2022/07/12 01:53:39;;;;;;;0.83;0.80;;;;;;;16.38;62.78;99572.28;5091379;28;42094;-83
2022/07/12 01:56:08;;;;;;;0.67;0.60;;;;;;;16.39;63.26;99574.00;5091594;28;42938;-79
2022/07/12 01:58:38;;;;;;;0.60;0.60;;;;;;;16.36;63.43;99576.88;5074279;28;42575;-82
2022/07/12 02:01:06;;;;;;;0.97;0.80;;;;;;;16.20;63.85;99558.47;5108314;28;39840;-81
2022/07/12 02:03:36;;;;;;;1.00;0.67;;;;;;;16.25;63.75;99576.84;5074271;28;43401;-77
2022/07/12 02:06:05;;;;;;;1.07;0.50;;;;;;;16.24;63.43;99583.16;5091731;28;43553;-81
2022/07/12 02:08:32;;;;;;;0.67;0.67;;;;;;;16.17;63.35;99580.94;5092569;28;42711;-83
2022/07/12 02:11:00;;;;;;;0.60;0.60;;;;;;;16.14;63.74;99585.66;5091547;28;39962;-80
2022/07/12 02:13:28;;;;;;;0.67;0.60;;;;;;;16.08;63.86;99581.59;5091289;28;43495;-75
2022/07/12 02:15:57;;;;;;;0.70;0.70;;;;;;;16.02;64.17;99582.06;5108095;28;41877;-84
2022/07/12 02:18:24;;;;;;;0.70;0.70;;;;;;;15.99;64.29;99581.44;5091066;28;41224;-78
2022/07/12 02:20:53;;;;;;;0.80;0.80;;;;;;;15.92;64.45;99581.03;5124853;27;40925;-78
2022/07/12 02:23:20;;;;;;;0.80;0.57;;;;;;;15.87;64.44;99580.50;5092251;28;41674;-76
2022/07/12 02:25:48;;;;;;;0.73;0.70;;;;;;;15.83;64.52;99576.34;5091303;28;42812;-80
2022/07/12 02:28:16;;;;;;;0.80;0.73;;;;;;;15.66;64.45;99553.56;5091291;28;43231;-78
2022/07/12 02:30:44;;;;;;;0.70;0.70;;;;;;;15.74;64.68;99569.00;5074087;28;40370;-78
2022/07/12 02:33:15;;;;;;;0.73;0.50;;;;;;;15.69;64.71;99573.84;5108033;28;41873;-80
2022/07/12 02:35:43;;;;;;;0.43;0.43;;;;;;;15.64;64.79;99575.97;5108125;28;43027;-76
2022/07/12 02:38:11;;;;;;;0.60;0.60;;;;;;;15.61;64.62;99570.84;5092184;28;42028;-79
2022/07/12 02:40:57;;;;;;;0.73;0.60;;;;;;;15.48;64.96;99559.31;5126869;27;39929;-77
2022/07/12 02:43:25;;;;;;;0.50;0.50;;;;;;;15.50;64.84;99568.06;5092095;28;41720;-78
2022/07/12 02:45:56;;;;;;;0.60;0.53;;;;;;;15.45;65.08;99574.56;5077429;28;41653;-80
2022/07/12 02:48:25;;;;;;;0.50;0.50;;;;;;;15.41;65.02;99578.44;5094485;28;42851;-78
2022/07/12 02:50:53;;;;;;;0.70;0.70;;;;;;;15.09;65.28;99529.16;5077446;28;39900;-82
2022/07/12 02:53:21;;;;;;;0.50;0.50;;;;;;;15.23;65.40;99553.03;5094576;28;41519;-81
2022/07/12 02:55:49;;;;;;;1.33;0.70;;;;;;;15.32;65.10;99575.59;5094142;28;43461;-78
2022/07/12 02:58:16;;;;;;;1.00;0.50;;;;;;;15.25;65.39;99569.81;5095534;28;42129;-81
2022/07/12 03:00:44;;;;;;;0.60;0.47;;;;;;;15.23;65.31;99577.06;5077317;28;40022;-78
2022/07/12 03:03:12;;;;;;;0.60;0.60;;;;;;;15.20;65.78;99576.44;5095507;28;41988;-80
2022/07/12 03:05:43;;;;;;;0.70;0.70;;;;;;;15.14;65.91;99576.84;5093829;28;42897;-78
2022/07/12 03:08:12;;;;;;;0.50;0.50;;;;;;;15.03;65.60;99567.78;5094206;28;42749;-77
2022/07/12 03:10:40;;;;;;;0.70;0.70;;;;;;;15.10;66.32;99579.72;5076947;28;40284;-78
2022/07/12 03:13:09;;;;;;;0.67;0.60;;;;;;;15.04;66.18;99582.84;5077277;28;40649;-75
2022/07/12 03:15:37;;;;;;;0.73;0.70;;;;;;;15.00;66.90;99573.34;5095278;28;43048;-82
2022/07/12 03:18:05;;;;;;;1.20;0.93;;;;;;;15.03;67.00;99577.59;5076990;28;41649;-76
2022/07/12 03:20:33;;;;;;;0.93;0.87;;;;;;;15.01;66.82;99576.84;5076426;28;39079;-78
2022/07/12 03:23:02;;;;;;;0.73;0.70;;;;;;;15.00;66.77;99577.81;5094822;28;42488;-80
2022/07/12 03:25:30;;;;;;;0.90;0.90;;;;;;;14.91;66.55;99571.31;5093542;28;42869;-80
2022/07/12 03:27:58;;;;;;;0.50;0.50;;;;;;;14.80;67.09;99557.00;5128136;27;42019;-82
2022/07/12 03:30:26;;;;;;;0.60;0.60;;;;;;;14.70;67.57;99530.97;5095049;28;39898;-78
2022/07/12 03:32:54;;;;;;;2.00;1.00;;;;;;;14.96;67.23;99584.34;5093579;28;41610;-80
2022/07/12 03:35:22;;;;;;;0.90;0.67;;;;;;;14.80;67.51;99565.00;5127926;27;42800;-77
2022/07/12 03:37:52;;;;;;;0.80;0.80;;;;;;;14.96;67.57;99584.34;5094537;28;42490;-78
2022/07/12 03:40:23;;;;;;;0.60;0.60;;;;;;;14.96;67.49;99587.00;5093509;28;41470;-80
2022/07/12 03:42:53;;;;;;;0.80;0.70;;;;;;;14.93;67.19;99590.72;5124694;27;42535;-79
2022/07/12 03:45:21;;;;;;;1.20;0.80;;;;;;;14.90;66.99;99590.06;5094313;28;43594;-76
2022/07/12 03:47:49;;;;;;;0.70;0.70;;;;;;;14.94;67.16;99599.59;5093148;28;41326;-81
2022/07/12 03:50:17;;;;;;;0.60;0.60;;;;;;;14.94;67.37;99596.91;5094555;28;40910;-80
2022/07/12 03:52:45;;;;;;;0.67;0.67;;;;;;;14.93;67.25;99600.53;5092751;28;42747;-78
2022/07/12 03:55:14;;;;;;;0.60;0.60;;;;;;;14.79;67.35;99582.81;5110253;28;44829;-80
2022/07/12 03:57:43;;;;;;;0.60;0.60;;;;;;;14.77;67.65;99590.06;5093184;28;40728;-76
2022/07/12 04:00:12;;;;;;;1.00;0.90;;;;;;;14.91;68.02;99610.47;5094158;28;40656;-75
2022/07/12 04:02:41;;;;;;;1.00;0.73;;;;;;;14.88;68.03;99613.31;5092773;28;40768;-77
2022/07/12 04:05:10;;;;;;;0.60;0.60;;;;;;;14.85;67.79;99618.84;5075948;28;41717;-76
2022/07/12 04:07:37;;;;;;;0.63;0.60;;;;;;;14.84;67.94;99622.47;5110245;28;42242;-82
2022/07/12 04:10:06;;;;;;;0.60;0.50;;;;;;;14.81;67.65;99620.03;5094329;28;39945;-81
2022/07/12 04:12:34;;;;;;;0.70;0.70;;;;;;;14.78;67.65;99622.91;5092746;28;41946;-77
2022/07/12 04:15:03;;;;;;;0.73;0.70;;;;;;;14.76;67.67;99632.81;5109668;28;41973;-84
2022/07/12 04:17:30;;;;;;;0.70;0.70;;;;;;;14.73;67.47;99632.06;5109757;28;40922;-80
2022/07/12 04:19:58;;;;;;;0.53;0.53;;;;;;;14.72;67.65;99630.34;5094185;28;39846;-77
2022/07/12 04:22:26;;;;;;;1.03;0.80;;;;;;;14.73;67.65;99632.06;5075771;28;42460;-81
2022/07/12 04:24:54;;;;;;;0.60;0.60;;;;;;;14.66;67.98;99620.13;5075842;28;41909;-79
2022/07/12 04:27:21;;;;;;;0.60;0.60;;;;;;;14.50;67.86;99598.09;5126731;27;42389;-83
2022/07/12 04:29:49;;;;;;;0.63;0.63;;;;;;;14.75;67.73;99639.97;5093864;28;41625;-81
2022/07/12 04:32:18;;;;;;;1.10;0.67;;;;;;;14.73;67.80;99637.41;5109617;28;40654;-78
2022/07/12 04:34:46;;;;;;;0.60;0.60;;;;;;;14.77;67.37;99643.38;5092502;28;42856;-78
2022/07/12 04:37:14;;;;;;;0.70;0.70;;;;;;;14.79;67.62;99648.63;5075856;28;41309;-76
2022/07/12 04:39:42;;;;;;;1.40;0.70;;;;;;;14.66;68.14;99613.94;5075768;28;38959;-81
2022/07/12 04:42:09;;;;;;;0.60;0.60;;;;;;;14.86;68.37;99647.25;5093824;28;42467;-82
2022/07/12 04:44:37;;;;;;;0.80;0.80;;;;;;;14.90;68.25;99648.75;5091760;28;41816;-82
2022/07/12 04:47:05;;;;;;;0.90;0.90;;;;;;;14.93;68.15;99646.75;5092472;28;42214;-81
2022/07/12 04:49:34;;;;;;;0.90;0.90;;;;;;;14.98;68.38;99639.25;5092489;28;39281;-78
2022/07/12 04:52:02;;;;;;;0.53;0.53;;;;;;;15.08;68.02;99650.19;5092291;28;41768;-81
2022/07/12 04:54:29;;;;;;;1.00;0.90;;;;;;;15.15;68.24;99656.81;5092134;28;42886;-78
2022/07/12 04:56:57;;;;;;;1.00;0.90;;;;;;;15.25;67.79;99655.19;5093591;28;42898;-76
2022/07/12 04:59:25;;;;;;;1.03;0.93;;;;;;;15.05;68.05;99611.22;5092155;28;40448;-81
2022/07/12 05:01:53;;;;;;;0.93;0.93;;;;;;;15.50;67.90;99658.84;5075363;28;40980;-80
2022/07/12 05:04:20;;;;;;;0.90;0.90;;;;;;;15.64;68.30;99653.41;5074030;28;41478;-78
2022/07/12 05:06:50;;;;;;;0.90;0.90;;;;;;;15.77;69.45;99656.94;5092003;28;41103;-78
2022/07/12 05:09:17;;;;;;;0.90;0.90;;;;;;;15.90;69.26;99657.75;5093600;28;40971;-82
2022/07/12 05:11:45;;;;;;;0.93;0.93;;;;;;;15.91;69.34;99638.09;5074255;28;40581;-78
2022/07/12 05:14:13;;;;;;;1.10;1.00;;;;;;;16.19;69.65;99662.84;5075214;28;41762;-77
2022/07/12 05:16:41;;;;;;;1.30;1.20;;;;;;;16.27;69.25;99666.66;5108327;28;42340;-76
2022/07/12 05:19:08;;;;;;;0.90;0.90;;;;;;;16.46;69.02;99671.47;5075578;28;39274;-81
2022/07/12 05:21:36;;;;;;;1.07;1.00;;;;;;;16.60;68.68;99678.50;5091868;28;41636;-78
2022/07/12 05:24:07;;;;;;;1.70;1.10;;;;;;;16.75;68.74;99678.25;5093517;28;42838;-80
2022/07/12 05:26:35;;;;;;;1.07;1.00;;;;;;;16.93;68.11;99680.50;5091619;28;42708;-79
2022/07/12 05:29:02;;;;;;;1.20;1.10;;;;;;;17.11;67.42;99684.47;5126040;27;39631;-77
2022/07/12 05:31:30;;;;;;;1.13;1.03;;;;;;;17.29;67.08;99684.88;5108520;28;43774;-75
2022/07/12 05:33:58;;;;;;;1.20;1.13;;;;;;;17.50;66.85;99686.75;5091705;28;44490;-78
2022/07/12 05:36:26;;;;;;;2.63;1.03;;;;;;;17.76;66.40;99679.38;5125883;27;42327;-80
2022/07/12 05:38:54;;;;;;;0.93;0.93;;;;;;;17.94;65.65;99679.72;5075074;28;38948;-80
2022/07/12 05:41:23;;;;;;;1.20;1.00;;;;;;;18.11;65.81;99681.94;5125201;27;41774;-76
2022/07/12 05:43:51;;;;;;;1.63;1.20;;;;;;;18.21;65.30;99677.53;5091586;28;43034;-77
2022/07/12 05:46:19;;;;;;;1.00;0.90;;;;;;;18.42;65.09;99684.81;5074421;28;43211;-79
2022/07/12 05:48:46;;;;;;;1.10;1.00;;;;;;;18.55;64.66;99691.72;5092754;28;39882;-77
2022/07/12 05:53:59;;;;;;;1.40;1.07;;;;;;;19.11;63.96;99688.00;5089241;28;42876;-80
2022/07/12 05:56:28;;;;;;;1.40;1.30;;;;;;;19.34;63.42;99705.72;5092644;28;42994;-78
2022/07/12 05:58:56;;;;;;;1.30;1.10;;;;;;;19.53;62.75;99703.22;5091369;28;40638;-79
2022/07/12 06:01:24;;;;;;;2.60;1.47;;;;;;;19.69;62.19;99706.25;5074283;28;40654;-78
2022/07/12 06:03:52;;;;;;;1.30;1.20;;;;;;;19.91;61.45;99709.75;5092381;28;42582;-80
2022/07/12 06:06:19;;;;;;;1.30;1.20;;;;;;;20.14;61.03;99710.44;5091003;28;42272;-76
2022/07/12 06:08:47;;;;;;;1.87;1.30;;;;;;;20.37;60.86;99711.97;5107959;28;42891;-74
2022/07/12 06:11:15;;;;;;;2.27;1.73;;;;;;;20.65;59.78;99726.47;5091697;28;42349;-73
2022/07/12 06:13:44;;;;;;;2.10;1.60;;;;;;;20.83;59.18;99740.97;5091242;28;43795;-75
2022/07/12 06:16:12;;;;;;;1.40;1.30;;;;;;;21.07;58.97;99738.72;5091856;28;43280;-82
2022/07/12 06:18:40;;;;;;;1.37;1.27;;;;;;;21.30;58.13;99746.53;5091169;28;40169;-79
2022/07/12 06:21:08;;;;;;;1.33;1.13;;;;;;;21.55;57.95;99754.06;5125422;27;41974;-79
2022/07/12 06:23:35;;;;;;;2.30;1.30;;;;;;;21.83;57.49;99753.16;5090972;28;42811;-76
2022/07/12 06:26:03;;;;;;;1.97;1.00;;;;;;;22.06;56.60;99753.69;5090621;28;42941;-81
2022/07/12 06:28:31;;;;;;;1.67;1.00;;;;;;;22.19;56.67;99734.47;5125406;27;40682;-81
2022/07/12 06:31:02;;;;;;;1.30;1.17;;;;;;;22.37;56.40;99740.81;5073775;28;41718;-81
2022/07/12 06:33:29;;;;;;;0.77;0.77;;;;;;;22.45;55.25;99743.59;5091560;28;41708;-81
2022/07/12 06:35:57;;;;;;;0.60;0.60;;;;;;;22.51;55.39;99744.81;5092057;28;43208;-74
2022/07/12 06:38:25;;;;;;;0.80;0.80;;;;;;;22.63;55.14;99740.06;5124670;27;40756;-77
2022/07/12 06:40:52;;;;;;;1.20;1.10;;;;;;;22.78;54.29;99749.41;5090888;28;43109;-79
2022/07/12 06:43:20;;;;;;;1.20;1.10;;;;;;;22.86;54.42;99753.06;5092310;28;42952;-75
2022/07/12 06:45:48;;;;;;;1.50;0.90;;;;;;;22.90;54.52;99751.72;5073907;28;43645;-80
2022/07/12 06:48:18;;;;;;;1.30;1.20;;;;;;;22.87;53.98;99749.31;5107816;28;39454;-80
2022/07/12 06:50:45;;;;;;;1.03;1.03;;;;;;;22.93;54.06;99750.56;5090135;28;41597;-78
2022/07/12 06:53:13;;;;;;;1.10;1.00;;;;;;;22.98;54.15;99744.72;5091964;28;43765;-79
2022/07/12 06:55:41;;;;;;;1.17;0.90;;;;;;;23.05;53.85;99749.34;5089956;28;43632;-77
2022/07/12 06:58:08;;;;;;;1.00;1.00;;;;;;;23.23;53.43;99752.94;5090753;28;39756;-78
2022/07/12 07:00:36;;;;;;;0.93;0.93;;;;;;;23.50;53.02;99751.09;5091781;28;42384;-78
2022/07/12 07:03:06;;;;;;;1.10;1.10;;;;;;;23.82;52.96;99746.00;5090498;28;42721;-74
2022/07/12 07:05:36;;;;;;;1.17;1.07;;;;;;;24.19;51.32;99775.47;5091220;28;41389;-79
2022/07/12 07:08:05;;;;;;;0.90;0.90;;;;;;;24.20;50.99;99770.91;5107651;28;38867;-80
2022/07/12 07:10:33;;;;;;;0.70;0.70;;;;;;;24.39;51.31;99773.41;5124758;27;42695;-79
2022/07/12 07:13:01;;;;;;;0.70;0.70;;;;;;;24.65;50.63;99776.91;5090042;28;41402;-81
2022/07/12 07:15:28;;;;;;;1.07;0.80;;;;;;;24.92;50.17;99785.81;5090827;28;41154;-80
2022/07/12 07:17:56;;;;;;;1.17;1.07;;;;;;;25.00;48.69;99791.28;5107249;28;39741;-77
2022/07/12 07:20:25;;;;;;;0.60;0.60;;;;;;;25.18;48.67;99797.44;5073020;28;42007;-75
2022/07/12 07:22:54;;;;;;;0.70;0.70;;;;;;;25.37;48.08;99783.56;5107287;28;44535;-77
2022/07/12 07:25:21;;;;;;;0.80;0.80;;;;;;;25.74;48.14;99790.38;5124437;27;42084;-77
2022/07/12 07:27:49;;;;;;;1.30;1.10;;;;;;;25.92;46.62;99803.78;5109471;28;38742;-78
2022/07/12 07:33:01;;;;;;;0.80;0.70;;;;;;;26.70;45.15;99798.56;5076613;28;43149;-79
2022/07/12 07:35:29;;;;;;;0.97;0.87;;;;;;;27.35;43.24;99807.22;5093665;28;42345;-78
2022/07/12 07:37:58;;;;;;;0.80;0.80;;;;;;;28.02;41.83;99815.56;5128010;27;39642;-78
2022/07/12 07:40:26;;;;;;;0.70;0.70;;;;;;;28.79;40.44;99816.16;5094333;28;41721;-79
2022/07/12 07:42:54;;;;;;;0.90;0.90;;;;;;;29.73;38.72;99824.38;5110166;28;42860;-77
2022/07/12 07:45:21;;;;;;;0.83;0.77;;;;;;;31.02;36.87;99797.34;5127709;27;42051;-82
2022/07/12 07:47:50;;;;;;;0.70;0.70;;;;;;;32.93;34.32;99851.44;5076544;28;39902;-83
2022/07/12 07:50:18;;;;;;;0.70;0.70;;;;;;;34.23;31.53;99869.31;5127161;27;41766;-78
2022/07/12 07:52:48;;;;;;;0.60;0.60;;;;;;;34.90;30.54;99867.63;5094276;28;42526;-82
2022/07/12 07:55:18;;;;;;;0.60;0.60;;;;;;;34.82;30.62;99862.44;5093048;28;44268;-81
2022/07/12 07:57:47;;;;;;;0.57;0.57;;;;;;;34.46;31.45;99858.56;5093415;28;40029;-78
2022/07/12 08:00:15;;;;;;;1.80;0.70;;;;;;;34.47;31.37;99860.25;5094066;28;41553;-79
2022/07/12 08:02:43;;;;;;;0.67;0.67;;;;;;;34.47;30.89;99867.66;5092885;28;43616;-80
2022/07/12 08:05:10;;;;;;;0.57;0.57;;;;;;;35.39;29.23;99874.91;5075893;28;42307;-76
2022/07/12 08:07:38;;;;;;;0.60;0.60;;;;;;;35.70;29.27;99868.34;5093355;28;39912;-79
2022/07/12 08:10:07;;;;;;;0.60;0.60;;;;;;;36.85;27.95;99873.44;5093789;28;41821;-78
2022/07/12 08:12:36;;;;;;;0.57;0.57;;;;;;;36.41;27.83;99864.69;5075383;28;43186;-77
2022/07/12 08:15:04;;;;;;;0.90;0.90;;;;;;;37.89;26.31;99871.44;5126603;27;42007;-78
2022/07/12 08:17:32;;;;;;;1.23;0.60;;;;;;;37.32;26.48;99871.47;5093946;28;40870;-78
2022/07/12 08:20:00;;;;;;;0.60;0.60;;;;;;;36.31;27.52;99865.28;5075867;28;41822;-80
2022/07/12 08:22:28;;;;;;;0.80;0.63;;;;;;;35.10;28.57;99860.00;5094068;28;42731;-85
2022/07/12 08:24:55;;;;;;;0.67;0.67;;;;;;;34.18;29.67;99852.66;5093677;28;43227;-79
2022/07/12 08:27:23;;;;;;;0.70;0.70;;;;;;;33.32;30.92;99839.47;5094286;28;41144;-81
2022/07/12 08:29:52;;;;;;;0.50;0.50;;;;;;;32.45;32.00;99828.94;5109751;28;41048;-79
2022/07/12 08:32:20;;;;;;;0.70;0.60;;;;;;;31.72;33.18;99817.97;5093889;28;42801;-79
2022/07/12 08:34:47;;;;;;;0.50;0.50;;;;;;;31.11;34.05;99821.81;5126629;27;42310;-82
2022/07/12 08:37:15;;;;;;;0.60;0.60;;;;;;;30.58;34.74;99813.31;5093840;28;41913;-79
2022/07/12 08:39:43;;;;;;;0.77;0.70;;;;;;;31.02;35.16;99799.22;5093465;28;42594;-84
2022/07/12 08:42:16;;;;;;;0.63;0.63;;;;;;;30.92;34.34;99816.00;5093635;28;42778;-81
2022/07/12 08:44:56;;;;;;;0.87;0.87;;;;;;;30.63;34.94;99813.56;5092109;28;43795;-80
2022/07/12 08:47:24;;;;;;;1.00;0.83;;;;;;;30.49;35.49;99809.03;5092463;28;39657;-81
2022/07/12 08:50:14;;;;;;;0.80;0.80;;;;;;;30.48;35.12;99810.06;5093377;28;41674;-79
2022/07/12 08:52:43;;;;;;;0.80;0.80;;;;;;;30.35;35.14;99814.41;5092086;28;43798;-80
2022/07/12 08:55:22;;;;;;;0.70;0.70;;;;;;;30.02;35.52;99810.59;5093451;28;43121;-79
2022/07/12 08:57:51;;;;;;;0.70;0.70;;;;;;;30.42;34.98;99814.44;5123797;27;40916;-84
2022/07/12 09:00:21;;;;;;;0.70;0.70;;;;;;;30.66;34.03;99822.19;5108989;28;40711;-83
2022/07/12 09:02:51;;;;;;;0.77;0.60;;;;;;;30.62;34.11;99820.06;5092214;28;41793;-78
2022/07/12 09:05:21;;;;;;;1.23;0.60;;;;;;;31.19;33.25;99816.13;5108877;28;41317;-82
2022/07/12 09:07:49;;;;;;;1.03;0.70;;;;;;;31.86;31.82;99826.22;5089408;28;40187;-81
2022/07/12 09:10:18;;;;;;;0.77;0.77;;;;;;;32.74;30.54;99827.66;5093449;28;41950;-80
2022/07/12 09:12:46;;;;;;;0.70;0.70;;;;;;;33.71;28.55;99846.63;5126100;27;42738;-79
2022/07/12 09:15:16;;;;;;;0.83;0.60;;;;;;;33.93;28.91;99849.03;5092048;28;42657;-80
2022/07/12 09:17:58;;;;;;;0.50;0.50;;;;;;;35.27;27.11;99861.06;5109032;28;42049;-81
2022/07/12 09:20:27;;;;;;;1.03;0.70;;;;;;;35.65;26.83;99854.41;5091690;28;43136;-78
2022/07/12 09:22:57;;;;;;;0.60;0.60;;;;;;;35.94;26.38;99853.56;5092554;28;43516;-83
2022/07/12 09:25:25;;;;;;;0.80;0.80;;;;;;;36.99;24.85;99872.09;5092615;28;44472;-80
2022/07/12 09:27:54;;;;;;;0.80;0.50;;;;;;;37.14;24.23;99869.66;5093105;28;41099;-80
2022/07/12 09:30:23;;;;;;;0.70;0.70;;;;;;;37.29;24.46;99856.19;5108790;28;41098;-78
2022/07/12 09:38:28;;;;;;;0.60;0.60;;;;;;;35.60;25.57;99851.53;5088765;28;40003;-79
2022/07/12 09:40:57;;;;;;;0.60;0.60;;;;;;;35.84;25.13;99842.28;5091093;28;41990;-79
2022/07/12 09:43:25;;;;;;;0.50;0.50;;;;;;;36.15;25.47;99837.53;5092752;28;42724;-83
2022/07/12 09:45:53;;;;;;;0.60;0.60;;;;;;;36.76;23.74;99863.84;5092639;28;42135;-80
2022/07/12 09:48:23;;;;;;;0.60;0.60;;;;;;;37.38;23.31;99860.25;5093084;28;39924;-81
2022/07/12 09:50:52;;;;;;;0.50;0.50;;;;;;;37.59;23.63;99855.09;5091506;28;42753;-83
2022/07/12 09:53:29;;;;;;;0.77;0.77;;;;;;;37.84;23.26;99855.59;5091562;28;42494;-81
2022/07/12 09:55:57;;;;;;;0.60;0.60;;;;;;;37.00;23.54;99852.53;5091522;28;41318;-78
2022/07/12 09:58:27;;;;;;;0.50;0.50;;;;;;;36.20;24.78;99851.44;5092843;28;39798;-83
2022/07/12 10:00:59;;;;;;;0.63;0.63;;;;;;;37.90;23.20;99846.31;5092513;28;42177;-81
2022/07/12 10:03:31;;;;;;;0.63;0.63;;;;;;;39.33;21.82;99861.22;5088352;28;43470;-79
2022/07/12 10:06:01;;;;;;;0.60;0.60;;;;;;;38.83;22.08;99866.91;5091197;28;41372;-79
2022/07/12 10:08:30;;;;;;;0.53;0.50;;;;;;;38.07;22.95;99852.72;5092583;28;40878;-81
2022/07/12 10:10:59;;;;;;;0.60;0.60;;;;;;;37.49;23.29;99849.38;5090711;28;41778;-82
2022/07/12 10:13:27;;;;;;;0.60;0.60;;;;;;;36.67;23.93;99842.13;5088306;28;43795;-79
2022/07/12 10:16:00;;;;;;;0.50;0.50;;;;;;;36.45;24.39;99845.72;5125118;27;43195;-81
2022/07/12 10:18:30;;;;;;;0.87;0.73;;;;;;;36.21;24.34;99853.97;5108147;28;41307;-78
2022/07/12 10:20:58;;;;;;;0.60;0.60;;;;;;;36.17;24.02;99840.88;5090847;28;43321;-84
2022/07/12 10:23:37;;;;;;;0.60;0.60;;;;;;;36.42;23.43;99847.03;5090749;28;42920;-84
2022/07/12 10:26:26;;;;;;;0.63;0.63;;;;;;;37.20;22.72;99848.56;5090835;28;42320;-80
2022/07/12 10:29:02;;;;;;;0.60;0.60;;;;;;;37.52;22.89;99841.44;5088115;28;39992;-77
2022/07/12 10:31:34;;;;;;;0.60;0.60;;;;;;;37.31;22.57;99845.75;5090654;28;40545;-83
2022/07/12 10:34:15;;;;;;;0.60;0.60;;;;;;;36.88;22.69;99854.47;5091068;28;41680;-78
2022/07/12 10:37:19;;;;;;;0.50;0.50;;;;;;;36.54;21.83;99856.16;5091793;28;42231;-80
2022/07/12 10:40:12;;;;;;;0.60;0.60;;;;;;;36.35;23.43;99849.09;5091250;28;39037;-85
2022/07/12 10:42:40;;;;;;;0.70;0.70;;;;;;;36.55;22.32;99849.56;5091895;28;41555;-83
2022/07/12 10:45:14;;;;;;;0.70;0.52;;;;;;;36.53;22.27;99859.16;5090479;28;42788;-77
2022/07/12 10:47:54;;;;;;;0.50;0.50;;;;;;;36.40;23.29;99843.69;5107936;28;41667;-79
2022/07/12 10:50:59;;;;;;;0.60;0.60;;;;;;;36.05;23.47;99840.03;5122947;27;41015;-76
2022/07/12 10:53:30;;;;;;;2.30;0.80;;;;;;;35.52;23.79;99838.06;5090672;28;43602;-77
2022/07/12 10:56:11;;;;;;;0.70;0.70;;;;;;;35.23;24.26;99837.81;5090273;28;42108;-79
2022/07/12 10:58:41;;;;;;;0.60;0.60;;;;;;;35.19;24.54;99810.94;5088823;28;43032;-80
2022/07/12 11:01:10;;;;;;;0.60;0.60;;;;;;;35.64;24.05;99825.16;5090369;28;39230;-83
2022/07/12 11:03:40;;;;;;;3.00;0.90;;;;;;;36.05;23.17;99832.59;5076963;28;41802;-83
2022/07/12 11:06:10;;;;;;;0.60;0.60;;;;;;;36.12;23.48;99832.47;5094907;28;43820;-80
2022/07/12 11:08:55;;;;;;;0.60;0.60;;;;;;;35.80;23.16;99830.03;5094091;28;42029;-82
2022/07/12 11:11:25;;;;;;;0.80;0.70;;;;;;;35.41;23.68;99825.06;5094580;28;41963;-83
2022/07/12 11:13:54;;;;;;;2.67;0.70;;;;;;;35.05;24.42;99815.78;5095307;28;43482;-80
2022/07/12 11:16:23;;;;;;;0.60;0.60;;;;;;;34.91;24.18;99825.28;5093866;28;42889;-80
2022/07/12 11:18:51;;;;;;;0.90;0.90;;;;;;;34.74;24.70;99815.94;5128290;27;42287;-79
2022/07/12 11:21:21;;;;;;;0.60;0.60;;;;;;;34.68;24.73;99814.09;5095005;28;40007;-87
2022/07/12 11:23:49;;;;;;;0.50;0.50;;;;;;;34.68;24.29;99820.44;5093193;28;41843;-75
2022/07/12 11:26:18;;;;;;;0.60;0.60;;;;;;;34.62;24.06;99815.03;5093376;28;41923;-80
2022/07/12 11:28:47;;;;;;;1.33;0.90;;;;;;;34.57;24.82;99808.28;5094957;28;43074;-81
2022/07/12 11:31:17;;;;;;;1.33;0.83;;;;;;;34.30;26.00;99793.13;5094895;28;39775;-78
2022/07/12 11:33:46;;;;;;;1.40;0.50;;;;;;;33.71;25.71;99755.97;5093283;28;40856;-77
2022/07/12 11:36:15;;;;;;;0.80;0.60;;;;;;;33.81;26.14;99808.53;5093038;28;42809;-80
2022/07/12 11:38:46;;;;;;;0.70;0.63;;;;;;;33.83;26.58;99798.16;5094641;28;42060;-80
2022/07/12 11:41:15;;;;;;;0.80;0.70;;;;;;;33.96;26.44;99790.88;5094156;28;40065;-76
2022/07/12 11:43:43;;;;;;;0.50;0.50;;;;;;;34.37;25.82;99784.81;5093419;28;42603;-81
2022/07/12 11:46:11;;;;;;;0.80;0.80;;;;;;;34.83;25.13;99781.56;5094268;28;42790;-83
2022/07/12 11:48:39;;;;;;;0.60;0.60;;;;;;;35.29;24.05;99790.06;5093628;28;42208;-83
2022/07/12 11:51:08;;;;;;;0.60;0.60;;;;;;;36.04;23.16;99785.94;5093323;28;40761;-80
2022/07/12 11:53:38;;;;;;;0.70;0.63;;;;;;;37.02;21.75;99794.28;5094538;28;41921;-81
2022/07/12 11:56:09;;;;;;;0.70;0.70;;;;;;;37.91;20.88;99795.44;5094091;28;42809;-77